createdAt,value
2018-04-12T00:00:17.621Z,4.37
2018-04-12T00:02:44.868Z,5.13
2018-04-12T00:05:12.131Z,6.40
2018-04-12T00:07:39.379Z,4.87
2018-04-12T00:10:06.650Z,4.93
2018-04-12T00:12:33.899Z,5.83
2018-04-12T00:15:01.169Z,6.20
2018-04-12T00:17:28.419Z,6.00
2018-04-12T00:19:55.686Z,7.00
2018-04-12T00:22:22.939Z,6.90
2018-04-12T00:24:50.212Z,7.20
2018-04-12T00:27:17.467Z,8.30
2018-04-12T00:29:44.739Z,7.83
2018-04-12T00:32:11.990Z,8.47
2018-04-12T00:34:39.272Z,10.40
2018-04-12T00:37:06.534Z,10.57
2018-04-12T00:39:33.807Z,11.20
2018-04-12T00:42:01.062Z,11.20
2018-04-12T00:44:28.342Z,11.77
2018-04-12T00:46:55.627Z,10.23
2018-04-12T00:49:22.912Z,11.50
2018-04-12T00:51:50.175Z,11.00
2018-04-12T00:54:17.440Z,12.20
2018-04-12T00:56:44.755Z,12.00
2018-04-12T00:59:11.989Z,12.20
2018-04-12T01:01:39.269Z,13.30
2018-04-12T01:04:06.535Z,13.83
2018-04-12T01:06:33.807Z,13.13
2018-04-12T01:09:01.066Z,13.23
2018-04-12T01:11:28.355Z,12.53
2018-04-12T01:13:55.615Z,15.00
2018-04-12T01:16:23.097Z,12.10
2018-04-12T01:18:50.355Z,12.17
2018-04-12T01:21:17.638Z,12.37
2018-04-12T01:23:44.895Z,11.60
2018-04-12T01:26:12.175Z,11.53
2018-04-12T01:28:39.439Z,11.50
2018-04-12T01:31:06.721Z,13.77
2018-04-12T01:33:33.979Z,14.03
2018-04-12T01:36:01.264Z,16.03
2018-04-12T01:38:28.531Z,12.50
2018-04-12T01:40:55.827Z,12.73
2018-04-12T01:43:23.088Z,11.53
2018-04-12T01:45:50.345Z,12.97
2018-04-12T01:48:17.622Z,12.43
2018-04-12T01:50:44.894Z,12.57
2018-04-12T01:53:12.193Z,12.77
2018-04-12T01:55:39.434Z,11.60
2018-04-12T01:58:06.714Z,13.07
2018-04-12T02:00:33.971Z,13.70
2018-04-12T02:03:01.248Z,14.03
2018-04-12T02:05:28.508Z,15.57
2018-04-12T02:07:55.792Z,16.30
2018-04-12T02:10:23.056Z,16.73
2018-04-12T02:12:50.331Z,18.03
2018-04-12T02:15:17.588Z,16.30
2018-04-12T02:17:44.868Z,16.87
2018-04-12T02:20:12.136Z,18.03
2018-04-12T02:22:39.414Z,16.03
2018-04-12T02:25:06.679Z,15.83
2018-04-12T02:27:33.958Z,18.27
2018-04-12T02:30:01.216Z,18.73
2018-04-12T02:32:28.495Z,20.10
2018-04-12T02:34:55.760Z,17.90
2018-04-12T02:37:23.054Z,17.00
2018-04-12T02:39:50.319Z,18.40
2018-04-12T02:42:17.575Z,18.60
2018-04-12T02:44:44.855Z,20.50
2018-04-12T02:47:12.115Z,21.80
2018-04-12T02:49:39.399Z,19.00
2018-04-12T02:52:06.659Z,22.50
2018-04-12T02:54:33.935Z,21.40
2018-04-12T02:57:01.210Z,22.33
2018-04-12T02:59:28.501Z,21.80
2018-04-12T03:01:55.759Z,22.00
2018-04-12T03:04:23.031Z,22.10
2018-04-12T03:06:50.290Z,23.57
2018-04-12T03:09:17.579Z,22.10
2018-04-12T03:11:44.831Z,27.33
2018-04-12T03:14:12.107Z,33.63
2018-04-12T03:16:39.372Z,29.57
2018-04-12T03:19:06.663Z,28.83
2018-04-12T03:21:33.929Z,33.93
2018-04-12T03:24:01.204Z,35.50
2018-04-12T03:26:28.464Z,37.97
2018-04-12T03:28:55.742Z,36.53
2018-04-12T03:31:23.003Z,34.00
2018-04-12T03:33:50.262Z,33.23
2018-04-12T03:36:17.542Z,34.87
2018-04-12T03:38:44.804Z,40.30
2018-04-12T03:41:12.083Z,30.60
2018-04-12T03:43:39.350Z,37.83
2018-04-12T03:46:06.626Z,37.60
2018-04-12T03:48:33.947Z,36.33
2018-04-12T03:51:01.162Z,43.10
2018-04-12T03:53:28.429Z,44.43
2018-04-12T03:55:55.703Z,45.60
2018-04-12T03:58:22.973Z,43.87
2018-04-12T04:00:50.243Z,43.17
2018-04-12T04:03:17.512Z,42.30
2018-04-12T04:05:44.792Z,47.50
2018-04-12T04:08:12.055Z,48.37
2018-04-12T04:10:39.330Z,45.10
2018-04-12T04:13:06.596Z,47.87
2018-04-12T04:15:39.759Z,48.00
2018-04-12T04:18:12.786Z,54.20
2018-04-12T04:20:45.864Z,53.43
2018-04-12T04:23:13.100Z,51.57
2018-04-12T04:25:40.384Z,52.00
2018-04-12T04:28:07.670Z,50.10
2018-04-12T04:30:34.935Z,50.77
2018-04-12T04:33:03.012Z,50.17
2018-04-12T04:35:30.279Z,51.20
2018-04-12T04:37:57.559Z,49.13
2018-04-12T04:40:24.824Z,50.30
2018-04-12T04:42:52.143Z,50.03
2018-04-12T04:45:19.408Z,49.33
2018-04-12T04:47:46.684Z,47.20
2018-04-12T04:50:13.943Z,45.00
2018-04-12T04:52:41.225Z,46.37
2018-04-12T04:55:08.484Z,45.13
2018-04-12T04:57:35.769Z,48.60
2018-04-12T05:00:03.027Z,55.43
2018-04-12T05:02:30.311Z,47.90
2018-04-12T05:04:57.575Z,47.97
2018-04-12T05:07:24.842Z,47.63
2018-04-12T05:09:52.168Z,52.80
2018-04-12T05:12:19.455Z,51.27
2018-04-12T05:14:46.736Z,52.50
2018-04-12T05:17:13.999Z,52.60
2018-04-12T05:19:41.292Z,51.80
2018-04-12T05:22:08.555Z,54.20
2018-04-12T05:24:35.835Z,55.03
2018-04-12T05:27:03.103Z,54.40
2018-04-12T05:29:30.386Z,53.17
2018-04-12T05:31:57.646Z,57.60
2018-04-12T05:34:24.931Z,56.77
2018-04-12T05:36:52.233Z,54.30
2018-04-12T05:39:19.505Z,54.07
2018-04-12T05:41:46.778Z,53.00
2018-04-12T05:44:14.039Z,53.50
2018-04-12T05:46:41.321Z,55.97
2018-04-12T05:49:08.588Z,57.57
2018-04-12T05:51:35.868Z,55.37
2018-04-12T05:54:03.127Z,55.33
2018-04-12T05:56:30.552Z,53.57
2018-04-12T05:58:57.809Z,57.33
2018-04-12T06:01:25.092Z,52.47
2018-04-12T06:03:52.364Z,55.67
2018-04-12T06:06:19.643Z,51.67
2018-04-12T06:08:46.911Z,58.13
2018-04-12T06:11:14.192Z,58.00
2018-04-12T06:13:41.458Z,60.10
2018-04-12T06:16:08.739Z,57.10
2018-04-12T06:18:35.999Z,58.70
2018-04-12T06:21:03.263Z,61.20
2018-04-12T06:23:30.542Z,56.27
2018-04-12T06:25:57.807Z,63.63
2018-04-12T06:28:25.120Z,58.00
2018-04-12T06:30:52.355Z,55.33
2018-04-12T06:33:19.646Z,57.70
2018-04-12T06:35:46.916Z,56.70
2018-04-12T06:38:14.186Z,59.80
2018-04-12T06:40:41.454Z,57.47
2018-04-12T06:43:08.736Z,57.87
2018-04-12T06:45:36.000Z,54.23
2018-04-12T06:48:03.285Z,58.77
2018-04-12T06:50:30.544Z,57.10
2018-04-12T06:52:57.820Z,54.33
2018-04-12T06:55:25.083Z,50.27
2018-04-12T06:57:52.353Z,48.30
2018-04-12T07:00:19.637Z,45.50
2018-04-12T07:02:46.907Z,48.03
2018-04-12T07:05:14.188Z,44.63
2018-04-12T07:07:41.447Z,47.00
2018-04-12T07:10:08.727Z,43.97
2018-04-12T07:12:35.993Z,45.10
2018-04-12T07:15:03.271Z,42.23
2018-04-12T07:17:30.546Z,44.37
2018-04-12T07:19:57.824Z,45.73
2018-04-12T07:22:25.088Z,42.23
2018-04-12T07:24:52.368Z,42.77
2018-04-12T07:27:19.638Z,43.37
2018-04-12T07:29:46.923Z,42.43
2018-04-12T07:32:14.191Z,42.80
2018-04-12T07:34:41.477Z,46.50
2018-04-12T07:37:08.740Z,47.07
2018-04-12T07:39:36.001Z,49.63
2018-04-12T07:42:03.274Z,50.40
2018-04-12T07:44:30.538Z,49.53
2018-04-12T07:46:57.823Z,50.57
2018-04-12T07:49:25.097Z,47.83
2018-04-12T07:51:52.374Z,43.37
2018-04-12T07:54:19.634Z,40.63
2018-04-12T07:56:46.912Z,42.33
2018-04-12T07:59:14.175Z,41.27
2018-04-12T08:01:41.461Z,42.97
2018-04-12T08:04:08.723Z,44.03
2018-04-12T08:06:35.998Z,42.40
2018-04-12T08:09:03.262Z,40.70
2018-04-12T08:11:30.542Z,41.93
2018-04-12T08:13:57.806Z,40.47
2018-04-12T08:16:25.063Z,35.43
2018-04-12T08:18:52.342Z,35.10
2018-04-12T08:21:19.612Z,35.40
2018-04-12T08:23:46.892Z,35.83
2018-04-12T08:26:14.147Z,34.63
2018-04-12T08:28:41.428Z,33.50
2018-04-12T08:31:08.698Z,31.70
2018-04-12T08:33:35.975Z,32.70
2018-04-12T08:36:03.231Z,32.50
2018-04-12T08:38:30.515Z,32.07
2018-04-12T08:40:57.782Z,30.03
2018-04-12T08:43:25.058Z,29.30
2018-04-12T08:45:52.361Z,24.67
2018-04-12T08:48:19.608Z,22.10
2018-04-12T08:50:46.876Z,20.27
2018-04-12T08:53:14.163Z,18.03
2018-04-12T08:55:41.421Z,15.00
2018-04-12T08:58:08.684Z,14.97
2018-04-12T09:00:35.962Z,14.90
2018-04-12T09:03:03.220Z,15.30
2018-04-12T09:05:30.512Z,13.13
2018-04-12T09:07:57.779Z,11.60
2018-04-12T09:10:25.056Z,8.50
2018-04-12T09:12:52.319Z,9.00
2018-04-12T09:15:19.594Z,9.00
2018-04-12T09:17:46.859Z,8.30
2018-04-12T09:20:14.143Z,8.63
2018-04-12T09:22:41.395Z,8.60
2018-04-12T09:25:08.670Z,8.50
2018-04-12T09:27:35.919Z,8.17
2018-04-12T09:30:03.196Z,7.40
2018-04-12T09:32:30.452Z,7.80
2018-04-12T09:34:57.737Z,7.37
2018-04-12T09:37:24.983Z,8.07
2018-04-12T09:39:52.272Z,7.80
2018-04-12T09:42:19.536Z,7.00
2018-04-12T09:44:46.788Z,7.50
2018-04-12T09:47:14.064Z,7.87
2018-04-12T09:49:41.332Z,8.43
2018-04-12T09:52:08.605Z,7.90
2018-04-12T09:54:35.861Z,8.27
2018-04-12T09:57:03.135Z,9.13
2018-04-12T09:59:30.390Z,9.53
2018-04-12T10:02:01.646Z,11.03
2018-04-12T10:04:28.906Z,11.00
2018-04-12T10:07:11.961Z,10.63
2018-04-12T10:09:39.219Z,12.43
2018-04-12T10:12:06.503Z,12.20
2018-04-12T10:14:33.771Z,13.30
2018-04-12T10:17:01.054Z,13.50
2018-04-12T10:19:28.318Z,12.90
2018-04-12T10:21:55.595Z,13.00
2018-04-12T10:24:22.871Z,13.70
2018-04-12T10:26:50.146Z,13.50
2018-04-12T10:29:17.410Z,12.53
2018-04-12T10:31:44.708Z,13.93
2018-04-12T10:34:11.970Z,14.83
2018-04-12T10:36:39.239Z,15.10
2018-04-12T10:39:06.521Z,14.90
2018-04-12T10:41:33.790Z,14.30
2018-04-12T10:44:01.064Z,14.80
2018-04-12T10:46:28.324Z,13.40
2018-04-12T10:48:55.604Z,13.60
2018-04-12T10:51:22.862Z,13.17
2018-04-12T10:53:50.143Z,13.17
2018-04-12T10:56:17.407Z,14.00
2018-04-12T10:58:44.703Z,12.87
2018-04-12T11:01:11.948Z,12.33
2018-04-12T11:03:39.236Z,12.13
2018-04-12T11:06:06.499Z,12.80
2018-04-12T11:08:33.767Z,11.93
2018-04-12T11:11:01.048Z,10.27
2018-04-12T11:13:28.334Z,9.50
2018-04-12T11:15:55.590Z,10.13
2018-04-12T11:18:22.919Z,11.00
2018-04-12T11:20:50.127Z,11.57
2018-04-12T11:23:17.390Z,8.93
2018-04-12T11:25:44.702Z,8.80
2018-04-12T11:28:11.923Z,8.87
2018-04-12T11:30:39.205Z,10.20
2018-04-12T11:33:06.474Z,10.60
2018-04-12T11:35:33.760Z,10.50
2018-04-12T11:38:01.022Z,11.77
2018-04-12T11:40:28.320Z,10.57
2018-04-12T11:42:55.593Z,9.87
2018-04-12T11:45:22.828Z,10.43
2018-04-12T11:47:50.091Z,9.83
2018-04-12T11:50:17.372Z,9.70
2018-04-12T11:52:44.667Z,12.57
2018-04-12T11:55:11.961Z,12.00
2018-04-12T11:57:39.220Z,11.47
2018-04-12T12:00:06.486Z,10.00
2018-04-12T12:02:33.772Z,10.30
2018-04-12T12:05:01.035Z,10.77
2018-04-12T12:07:28.319Z,10.97
2018-04-12T12:09:55.587Z,10.03
2018-04-12T12:12:22.863Z,8.53
2018-04-12T12:14:50.114Z,9.57
2018-04-12T12:17:17.413Z,9.40
2018-04-12T12:19:44.663Z,7.87
2018-04-12T12:22:11.935Z,9.30
2018-04-12T12:24:39.191Z,8.30
2018-04-12T12:27:06.460Z,7.80
2018-04-12T12:29:33.717Z,8.90
2018-04-12T12:32:01.002Z,7.57
2018-04-12T12:34:28.259Z,8.60
2018-04-12T12:36:55.543Z,8.40
2018-04-12T12:39:22.858Z,8.57
2018-04-12T12:41:50.107Z,8.63
2018-04-12T12:44:17.512Z,8.30
2018-04-12T12:46:44.758Z,9.37
2018-04-12T12:49:12.034Z,8.60
2018-04-12T12:51:39.292Z,8.43
2018-04-12T12:54:06.579Z,7.80
2018-04-12T12:56:33.835Z,8.50
2018-04-12T12:59:01.119Z,10.50
2018-04-12T13:01:28.387Z,11.17
2018-04-12T13:03:55.663Z,10.97
2018-04-12T13:06:22.929Z,10.43
2018-04-12T13:08:50.207Z,11.10
2018-04-12T13:11:17.478Z,10.90
2018-04-12T13:13:44.754Z,10.53
2018-04-12T13:16:12.016Z,11.60
2018-04-12T13:18:39.275Z,10.73
2018-04-12T13:21:06.559Z,12.67
2018-04-12T13:23:33.821Z,13.00
2018-04-12T13:26:01.102Z,14.27
2018-04-12T13:28:28.368Z,14.10
2018-04-12T13:30:55.644Z,13.57
2018-04-12T13:33:22.905Z,15.60
2018-04-12T13:35:50.184Z,17.90
2018-04-12T13:38:17.446Z,17.47
2018-04-12T13:40:44.726Z,17.10
2018-04-12T13:43:11.987Z,17.40
2018-04-12T13:45:39.271Z,17.50
2018-04-12T13:48:06.597Z,16.10
2018-04-12T13:50:33.889Z,17.90
2018-04-12T13:53:01.243Z,16.77
2018-04-12T13:55:28.511Z,14.93
2018-04-12T13:57:55.857Z,16.67
2018-04-12T14:00:23.119Z,16.97
2018-04-12T14:02:50.402Z,16.87
2018-04-12T14:05:17.663Z,17.93
2018-04-12T14:07:44.940Z,17.53
2018-04-12T14:10:12.202Z,19.20
2018-04-12T14:12:39.506Z,16.17
2018-04-12T14:15:06.739Z,16.90
2018-04-12T14:17:34.019Z,18.10
2018-04-12T14:20:01.288Z,18.70
2018-04-12T14:22:28.574Z,16.57
2018-04-12T14:24:55.831Z,16.10
2018-04-12T14:27:23.107Z,16.87
2018-04-12T14:29:50.443Z,15.70
2018-04-12T14:32:17.671Z,15.40
2018-04-12T14:34:44.952Z,16.90
2018-04-12T14:37:12.223Z,16.63
2018-04-12T14:39:39.498Z,16.60
2018-04-12T14:42:06.758Z,15.07
2018-04-12T14:44:34.042Z,16.17
2018-04-12T14:47:01.303Z,17.23
2018-04-12T14:49:28.587Z,15.97
2018-04-12T14:51:55.854Z,18.10
2018-04-12T14:54:23.136Z,16.50
2018-04-12T14:56:50.405Z,17.20
2018-04-12T14:59:17.681Z,16.10
2018-04-12T15:01:44.933Z,16.03
2018-04-12T15:04:12.219Z,17.13
2018-04-12T15:06:39.482Z,16.07
2018-04-12T15:09:06.766Z,16.30
2018-04-12T15:11:34.027Z,15.83
2018-04-12T15:14:01.307Z,16.20
2018-04-12T15:16:28.570Z,15.00
2018-04-12T15:18:55.849Z,14.87
2018-04-12T15:21:23.111Z,14.70
2018-04-12T15:23:50.415Z,13.70
2018-04-12T15:26:17.676Z,14.73
2018-04-12T15:28:44.964Z,13.73
2018-04-12T15:31:12.224Z,15.00
2018-04-12T15:33:39.482Z,13.47
2018-04-12T15:36:06.773Z,13.13
2018-04-12T15:38:34.027Z,15.43
2018-04-12T15:41:01.311Z,14.50
2018-04-12T15:43:28.572Z,15.40
2018-04-12T15:45:55.858Z,14.13
2018-04-12T15:48:23.109Z,13.83
2018-04-12T15:50:50.394Z,15.23
2018-04-12T15:53:17.667Z,15.10
2018-04-12T15:55:44.940Z,16.40
2018-04-12T15:58:12.195Z,16.03
2018-04-12T16:00:39.487Z,15.20
2018-04-12T16:03:06.754Z,17.20
2018-04-12T16:05:34.035Z,16.47
2018-04-12T16:08:01.295Z,17.83
2018-04-12T16:10:28.571Z,16.00
2018-04-12T16:12:55.843Z,17.87
2018-04-12T16:15:23.119Z,17.60
2018-04-12T16:17:50.383Z,17.30
2018-04-12T16:20:17.651Z,18.23
2018-04-12T16:22:44.935Z,16.90
2018-04-12T16:25:12.199Z,17.97
2018-04-12T16:27:39.478Z,17.23
2018-04-12T16:30:06.743Z,18.03
2018-04-12T16:32:34.031Z,16.33
2018-04-12T16:35:01.294Z,17.93
2018-04-12T16:37:28.576Z,18.20
2018-04-12T16:39:55.841Z,18.67
2018-04-12T16:42:23.119Z,18.37
2018-04-12T16:44:50.383Z,18.20
2018-04-12T16:47:17.663Z,19.30
2018-04-12T16:49:44.935Z,18.17
2018-04-12T16:52:12.214Z,19.33
2018-04-12T16:54:39.486Z,17.97
2018-04-12T16:57:06.768Z,21.00
2018-04-12T16:59:34.033Z,18.10
2018-04-12T17:02:01.316Z,18.47
2018-04-12T17:04:28.582Z,20.10
2018-04-12T17:06:55.912Z,18.20
2018-04-12T17:09:23.352Z,16.97
2018-04-12T17:11:50.634Z,16.80
2018-04-12T17:14:17.902Z,18.20
2018-04-12T17:16:45.164Z,18.30
2018-04-12T17:19:12.473Z,16.07
2018-04-12T17:21:39.716Z,17.23
2018-04-12T17:24:06.995Z,16.13
2018-04-12T17:26:34.259Z,15.10
2018-04-12T17:29:01.550Z,16.23
2018-04-12T17:31:28.811Z,15.17
2018-04-12T17:33:56.087Z,13.73
2018-04-12T17:36:23.357Z,14.53
2018-04-12T17:38:50.621Z,14.07
2018-04-12T17:41:17.888Z,15.13
2018-04-12T17:43:45.163Z,12.40
2018-04-12T17:46:12.427Z,14.23
2018-04-12T17:48:39.706Z,14.40
2018-04-12T17:51:06.974Z,12.73
2018-04-12T17:53:34.248Z,12.40
2018-04-12T17:56:01.515Z,12.23
2018-04-12T17:58:29.639Z,11.67
2018-04-12T18:00:56.910Z,10.20
2018-04-12T18:03:24.164Z,10.40
2018-04-12T18:05:51.452Z,10.30
2018-04-12T18:08:18.732Z,10.10
2018-04-12T18:10:46.016Z,10.30
2018-04-12T18:13:13.276Z,10.47
2018-04-12T18:15:40.565Z,11.00
2018-04-12T18:18:07.831Z,10.17
2018-04-12T18:20:35.114Z,10.13
2018-04-12T18:23:02.379Z,10.40
2018-04-12T18:25:29.663Z,10.57
2018-04-12T18:27:56.929Z,11.47
2018-04-12T18:30:24.216Z,11.00
2018-04-12T18:32:51.476Z,10.53
2018-04-12T18:35:19.714Z,10.10
2018-04-12T18:37:46.978Z,10.13
2018-04-12T18:40:15.159Z,9.97
2018-04-12T18:42:42.423Z,10.20
2018-04-12T18:45:09.703Z,11.40
2018-04-12T18:47:36.972Z,10.00
2018-04-12T18:50:05.060Z,10.87
2018-04-12T18:52:32.327Z,10.27
2018-04-12T18:54:59.591Z,10.00
2018-04-12T18:57:26.858Z,9.77
2018-04-12T18:59:54.120Z,10.97
2018-04-12T19:02:21.395Z,8.73
2018-04-12T19:04:49.451Z,10.67
2018-04-12T19:07:16.733Z,10.33
2018-04-12T19:09:44.003Z,11.07
2018-04-12T19:12:11.283Z,11.10
2018-04-12T19:14:38.547Z,11.83
2018-04-12T19:17:05.826Z,11.50
2018-04-12T19:19:33.088Z,10.10
2018-04-12T19:22:00.375Z,10.00
2018-04-12T19:24:27.641Z,10.63
2018-04-12T19:26:54.916Z,10.43
2018-04-12T19:29:22.174Z,9.13
2018-04-12T19:31:49.460Z,10.03
2018-04-12T19:34:16.719Z,11.17
2018-04-12T19:36:43.997Z,10.93
2018-04-12T19:39:11.256Z,10.00
2018-04-12T19:41:38.547Z,10.20
2018-04-12T19:44:05.807Z,10.50
2018-04-12T19:46:33.064Z,9.80
2018-04-12T19:49:00.339Z,10.60
2018-04-12T19:51:27.603Z,9.03
2018-04-12T19:53:54.884Z,9.10
2018-04-12T19:56:22.175Z,8.50
2018-04-12T19:58:49.415Z,8.20
2018-04-12T20:01:16.675Z,9.03
2018-04-12T20:03:43.951Z,7.83
2018-04-12T20:06:11.207Z,7.37
2018-04-12T20:08:38.483Z,6.93
2018-04-12T20:11:06.081Z,6.73
2018-04-12T20:13:33.349Z,6.73
2018-04-12T20:16:00.599Z,6.80
2018-04-12T20:18:27.879Z,6.23
2018-04-12T20:20:55.159Z,5.73
2018-04-12T20:23:22.412Z,7.00
2018-04-12T20:25:49.662Z,6.30
2018-04-12T20:28:16.942Z,5.47
2018-04-12T20:30:44.195Z,7.10
2018-04-12T20:33:11.456Z,5.90
2018-04-12T20:35:38.723Z,5.70
2018-04-12T20:38:06.008Z,4.93
2018-04-12T20:40:33.275Z,5.37
2018-04-12T20:43:00.522Z,5.03
2018-04-12T20:45:27.794Z,5.60
2018-04-12T20:47:55.085Z,5.47
2018-04-12T20:50:22.308Z,5.90
2018-04-12T20:52:49.560Z,6.90
2018-04-12T20:55:16.834Z,7.10
2018-04-12T20:57:44.075Z,6.10
2018-04-12T21:00:11.346Z,5.67
2018-04-12T21:02:38.593Z,5.33
2018-04-12T21:05:05.865Z,5.73
2018-04-12T21:07:33.116Z,6.00
2018-04-12T21:10:00.378Z,6.30
2018-04-12T21:12:27.631Z,6.40
2018-04-12T21:14:54.907Z,5.90
2018-04-12T21:17:22.164Z,7.40
2018-04-12T21:19:49.429Z,6.77
2018-04-12T21:22:16.694Z,6.70
2018-04-12T21:24:43.943Z,7.10
2018-04-12T21:27:11.226Z,7.40
2018-04-12T21:29:38.499Z,6.60
2018-04-12T21:32:05.775Z,7.90
2018-04-12T21:34:33.023Z,7.67
2018-04-12T21:37:00.299Z,8.63
2018-04-12T21:39:27.558Z,7.10
2018-04-12T21:41:54.835Z,7.60
2018-04-12T21:44:22.096Z,7.87
2018-04-12T21:46:49.376Z,8.00
2018-04-12T21:49:16.640Z,6.90
2018-04-12T21:51:43.922Z,6.80
2018-04-12T21:54:11.181Z,7.40
2018-04-12T21:56:38.442Z,6.17
2018-04-12T21:59:05.699Z,6.70
2018-04-12T22:01:33.055Z,6.40
2018-04-12T22:04:00.300Z,6.30
2018-04-12T22:06:27.550Z,6.30
2018-04-12T22:08:54.819Z,7.00
2018-04-12T22:11:22.070Z,5.67
2018-04-12T22:13:49.338Z,5.57
2018-04-12T22:16:16.587Z,5.73
2018-04-12T22:18:43.867Z,5.10
2018-04-12T22:21:11.119Z,6.10
2018-04-12T22:23:38.395Z,5.63
2018-04-12T22:26:05.655Z,5.50
2018-04-12T22:28:32.919Z,5.00
2018-04-12T22:31:00.171Z,5.03
2018-04-12T22:33:27.451Z,4.77
2018-04-12T22:35:54.711Z,4.60
2018-04-12T22:38:21.983Z,5.10
2018-04-12T22:40:49.246Z,5.37
2018-04-12T22:43:16.515Z,5.77
2018-04-12T22:45:43.767Z,6.00
2018-04-12T22:48:11.044Z,5.40
2018-04-12T22:50:38.303Z,5.60
2018-04-12T22:53:05.554Z,6.10
2018-04-12T22:55:32.831Z,6.30
2018-04-12T22:58:00.092Z,6.63
2018-04-12T23:00:27.359Z,6.40
2018-04-12T23:02:54.611Z,7.20
2018-04-12T23:05:21.891Z,5.50
2018-04-12T23:07:49.158Z,6.53
2018-04-12T23:10:16.439Z,6.20
2018-04-12T23:12:43.682Z,5.93
2018-04-12T23:15:10.955Z,7.23
2018-04-12T23:17:38.211Z,7.20
2018-04-12T23:20:05.476Z,8.77
2018-04-12T23:22:32.727Z,7.13
2018-04-12T23:24:59.996Z,6.53
2018-04-12T23:27:27.257Z,6.23
2018-04-12T23:29:54.539Z,7.50
2018-04-12T23:32:21.800Z,7.03
2018-04-12T23:34:49.067Z,7.60
2018-04-12T23:37:16.318Z,7.00
2018-04-12T23:39:43.595Z,6.60
2018-04-12T23:42:10.855Z,7.03
2018-04-12T23:44:38.113Z,6.33
2018-04-12T23:47:05.387Z,6.67
2018-04-12T23:49:32.654Z,6.87
2018-04-12T23:51:59.927Z,7.10
2018-04-12T23:54:27.191Z,6.93
2018-04-12T23:56:54.462Z,6.20
2018-04-12T23:59:21.719Z,6.77
